NCAR-RAP Real-Time Weather Data

Output produced by METARs form (26 May 2022  07:48 UTC)
found at http://weather.rap.ucar.edu/surface/
 
KSFO 260656Z 30005KT 10SM FEW005 14/10 A2984 RMK AO2 SLP106 T01440100
KSFO 260556Z 30008KT 10SM FEW005 14/10 A2985 RMK AO2 SLP106 T01440100 10256 20144 51018
KSFO 260456Z 30008KT 10SM FEW004 14/10 A2984 RMK AO2 SLP103 T01440100
KSFO 260356Z 30008KT 10SM FEW005 SCT200 15/10 A2981 RMK AO2 SLP095 T01500100
KSFO 260256Z 29012KT 10SM FEW005 FEW025 BKN200 17/10 A2979 RMK AO2 SLP088 T01720100 53002
KSFO 260156Z 02008KT 10SM FEW005 BKN200 18/13 A2978 RMK AO2 SLP085 T01830128
KSFO 260056Z 30009KT 10SM R28R/2200VP6000FT FEW005 BKN200 25/09 A2979 RMK AO2 SLP087 T02500094
KSFO 252356Z 31013KT 10SM FEW005 BKN200 23/11 A2979 RMK AO2 SLP086 T02280106 10272 20194 58006
KSFO 252256Z 31016KT 10SM FEW005 BKN200 22/11 A2980 RMK AO2 PK WND 30027/2219 SLP091 T02170111
KSFO 252156Z 31020G28KT 10SM FEW005 BKN200 21/11 A2980 RMK AO2 PK WND 31028/2148 SLP092 T02110106
KSFO 252056Z 30014KT 10SM SCT200 26/11 A2980 RMK AO2 SLP092 T02560106 58008
KSFO 251956Z 29014KT 10SM SCT200 26/11 A2982 RMK AO2 SLP097 T02560111
KSFO 251856Z 03009KT 10SM SCT200 22/14 A2982 RMK AO2 SLP097 T02220144
KSFO 251756Z 04005KT 10SM SCT200 22/14 A2983 RMK AO2 SLP100 T02170139 10222 20172 50005
KSFO 251656Z 02006KT 10SM SCT200 22/13 A2983 RMK AO2 SLP102 T02170128
KSFO 251556Z 01003KT 10SM FEW200 21/13 A2983 RMK AO2 SLP101 T02110128
KSFO 251456Z 00000KT 10SM FEW200 22/10 A2981 RMK AO2 SLP095 T02170100 52010
KSFO 251356Z 00000KT 10SM FEW200 19/09 A2980 RMK AO2 SLP091 T01940089
KSFO 251256Z 00000KT 10SM CLR 17/11 A2979 RMK AO2 SLP088 T01720106
KSFO 251156Z 00000KT 10SM CLR 17/09 A2978 RMK AO2 SLP084 T01720089 10183 20161 53001
KSFO 251056Z 30003KT 10SM CLR 17/07 A2977 RMK AO2 SLP082 T01670072
KSFO 250956Z 29004KT 10SM CLR 17/07 A2978 RMK AO2 SLP084 T01670072
KSFO 250856Z 28004KT 10SM CLR 17/07 A2978 RMK AO2 SLP083 T01670072 58005
KSFO 250756Z 28006KT 10SM CLR 17/09 A2979 RMK AO2 SLP087 T01720089 403060117
KSFO 250656Z 30007KT 10SM CLR 18/07 A2979 RMK AO2 SLP087 T01780067
KSFO 250556Z 30007KT 10SM CLR 18/07 A2979 RMK AO2 SLP088 T01830067 10283 20178 52007
KSFO 250456Z 28012KT 10SM FEW200 19/06 A2979 RMK AO2 SLP087 T01890061
KSFO 250356Z 33008KT 10SM FEW200 19/07 A2977 RMK AO2 SLP082 T01940067
KSFO 250256Z 30015KT 10SM FEW200 21/06 A2977 RMK AO2 SLP081 T02110061 56008
KSFO 250156Z 29014KT 10SM FEW200 27/06 A2977 RMK AO2 SLP082 T02670061
KSFO 250056Z 29016KT 10SM FEW200 27/06 A2978 RMK AO2 SLP084 T02720061
KSFO 242356Z 30015KT 10SM FEW200 28/06 A2979 RMK AO2 SLP089 T02830061 10306 20194 56015
KSFO 242256Z 31013KT 10SM SCT200 28/08 A2980 RMK AO2 SLP092 T02780083
KSFO 242156Z 30015KT 10SM SCT200 29/09 A2982 RMK AO2 SLP099 T02890094
KSFO 242056Z 31012KT 10SM FEW200 29/09 A2984 RMK AO2 SLP104 T02940094 56010
KSFO 241956Z 06004KT 10SM FEW200 22/15 A2985 RMK AO2 SLP107 T02220150
KSFO 241856Z 04004KT 10SM CLR 21/14 A2986 RMK AO2 SLP110 T02110139
KSFO 241756Z 05003KT 10SM FEW200 19/12 A2987 RMK AO2 SLP114 T01890122 10189 20117 58005
KSFO 241656Z 07004KT 10SM CLR 18/12 A2988 RMK AO2 SLP117 T01830117
KSFO 241556Z 05003KT 10SM CLR 17/10 A2989 RMK AO2 SLP120 T01720100
KSFO 241456Z 00000KT 10SM CLR 16/09 A2988 RMK AO2 SLP119 T01560089 53008
KSFO 241356Z 00000KT 10SM CLR 13/08 A2987 RMK AO2 SLP114 T01330083
KSFO 241256Z 31004KT 10SM CLR 12/08 A2986 RMK AO2 SLP110 T01170078
KSFO 241156Z 29008KT 10SM CLR 12/08 A2986 RMK AO2 SLP110 T01170078 10133 20117 55004
KSFO 241056Z 29003KT 10SM CLR 12/08 A2985 RMK AO2 SLP108 T01220078
KSFO 240956Z 29004KT 10SM CLR 12/08 A2985 RMK AO2 SLP109 T01220078
KSFO 240856Z 31006KT 10SM CLR 12/08 A2987 RMK AO2 SLP114 T01220083 56007
KSFO 240756Z 31005KT 10SM CLR 13/08 A2987 RMK AO2 SLP116 T01280083 402060111